createdAt,value
2022-09-17T00:01:29.466Z,100.00
2022-09-17T00:03:59.293Z,100.00
2022-09-17T00:06:26.389Z,100.00
2022-09-17T00:08:54.329Z,100.00
2022-09-17T00:11:29.912Z,100.00
2022-09-17T00:13:59.224Z,100.00
2022-09-17T00:16:36.045Z,100.00
2022-09-17T00:19:05.786Z,100.00
2022-09-17T00:21:32.736Z,100.00
2022-09-17T00:24:06.740Z,100.00
2022-09-17T00:26:35.052Z,100.00
2022-09-17T00:29:01.945Z,100.00
2022-09-17T00:31:29.943Z,100.00
2022-09-17T00:33:58.300Z,100.00
2022-09-17T00:36:24.884Z,100.00
2022-09-17T00:38:56.468Z,100.00
2022-09-17T00:41:26.606Z,100.00
2022-09-17T00:43:57.653Z,100.00
2022-09-17T00:46:40.444Z,100.00
2022-09-17T00:49:13.691Z,100.00
2022-09-17T00:51:48.005Z,100.00
2022-09-17T00:54:15.270Z,100.00
2022-09-17T00:56:43.694Z,100.00
2022-09-17T00:59:10.980Z,100.00
2022-09-17T01:01:37.793Z,100.00
2022-09-17T01:04:04.573Z,100.00
2022-09-17T01:06:46.810Z,100.00
2022-09-17T01:09:16.379Z,100.00
2022-09-17T01:12:08.004Z,100.00
2022-09-17T01:14:59.446Z,100.00
2022-09-17T01:17:36.628Z,100.00
2022-09-17T01:20:44.086Z,100.00
2022-09-17T01:23:37.757Z,100.00
2022-09-17T01:26:43.809Z,100.00
2022-09-17T01:29:55.249Z,100.00
2022-09-17T01:32:31.857Z,100.00
2022-09-17T01:35:13.671Z,100.00
2022-09-17T01:38:12.051Z,100.00
2022-09-17T01:40:51.198Z,100.00
2022-09-17T01:43:27.994Z,100.00
2022-09-17T01:46:21.750Z,100.00
2022-09-17T01:48:52.368Z,100.00
2022-09-17T01:51:22.620Z,100.00
2022-09-17T01:53:58.266Z,100.00
2022-09-17T01:56:36.289Z,100.00
2022-09-17T01:59:13.174Z,100.00
2022-09-17T02:01:46.762Z,100.00
2022-09-17T02:04:23.182Z,100.00
2022-09-17T02:06:56.384Z,100.00
2022-09-17T02:09:35.222Z,100.00
2022-09-17T02:12:08.315Z,100.00
2022-09-17T02:14:50.825Z,100.00
2022-09-17T02:17:36.186Z,100.00
2022-09-17T02:20:04.069Z,100.00
2022-09-17T02:22:56.879Z,100.00
2022-09-17T02:25:44.422Z,100.00
2022-09-17T02:28:16.804Z,100.00
2022-09-17T02:30:43.756Z,100.00
2022-09-17T02:33:14.571Z,100.00
2022-09-17T02:35:41.507Z,100.00
2022-09-17T02:38:08.061Z,100.00
2022-09-17T02:40:45.110Z,100.00
2022-09-17T02:43:35.178Z,100.00
2022-09-17T02:46:19.223Z,100.00
2022-09-17T02:49:07.531Z,100.00
2022-09-17T02:51:44.951Z,100.00
2022-09-17T02:54:41.839Z,100.00
2022-09-17T02:57:14.334Z,100.00
2022-09-17T02:59:52.131Z,100.00
2022-09-17T03:02:30.587Z,100.00
2022-09-17T03:04:58.098Z,100.00
2022-09-17T03:07:25.239Z,100.00
2022-09-17T03:09:52.005Z,100.00
2022-09-17T03:12:18.738Z,100.00
2022-09-17T03:14:45.370Z,100.00
2022-09-17T03:17:12.649Z,100.00
2022-09-17T03:19:39.349Z,100.00
2022-09-17T03:22:05.953Z,100.00
2022-09-17T03:24:32.636Z,100.00
2022-09-17T03:26:59.197Z,100.00
2022-09-17T03:29:25.996Z,100.00
2022-09-17T03:31:52.665Z,100.00
2022-09-17T03:34:19.624Z,100.00
2022-09-17T03:36:46.249Z,100.00
2022-09-17T03:39:13.434Z,100.00
2022-09-17T03:41:40.006Z,100.00
2022-09-17T03:44:06.832Z,100.00
2022-09-17T03:46:33.436Z,100.00
2022-09-17T03:49:00.073Z,100.00
2022-09-17T03:51:26.736Z,100.00
2022-09-17T03:53:53.345Z,100.00
2022-09-17T03:56:20.120Z,100.00
2022-09-17T03:58:46.804Z,100.00
2022-09-17T04:01:13.848Z,100.00
2022-09-17T04:03:40.757Z,100.00
2022-09-17T04:06:07.340Z,100.00
2022-09-17T04:08:34.114Z,100.00
2022-09-17T04:11:00.631Z,100.00
2022-09-17T04:13:27.393Z,100.00
2022-09-17T04:15:54.012Z,100.00
2022-09-17T04:18:20.751Z,100.00
2022-09-17T04:20:47.294Z,100.00
2022-09-17T04:23:14.218Z,100.00
2022-09-17T04:25:40.823Z,100.00
2022-09-17T04:28:07.473Z,100.00
2022-09-17T04:30:34.267Z,100.00
2022-09-17T04:33:00.952Z,100.00
2022-09-17T04:35:27.646Z,100.00
2022-09-17T04:37:55.986Z,100.00
2022-09-17T04:40:24.539Z,100.00
2022-09-17T04:42:56.121Z,100.00
2022-09-17T04:45:23.479Z,100.00
2022-09-17T04:47:52.785Z,100.00
2022-09-17T04:50:19.840Z,100.00
2022-09-17T04:52:47.154Z,100.00
2022-09-17T04:55:15.118Z,100.00
2022-09-17T04:57:48.861Z,100.00
2022-09-17T05:00:17.839Z,100.00
2022-09-17T05:02:46.297Z,100.00
2022-09-17T05:05:13.602Z,100.00
2022-09-17T05:07:41.080Z,100.00
2022-09-17T05:10:09.006Z,100.00
2022-09-17T05:12:35.876Z,100.00
2022-09-17T05:15:02.881Z,100.00
2022-09-17T05:17:29.456Z,100.00
2022-09-17T05:19:56.134Z,100.00
2022-09-17T05:22:22.753Z,100.00
2022-09-17T05:24:49.413Z,100.00
2022-09-17T05:27:16.062Z,100.00
2022-09-17T05:29:42.591Z,100.00
2022-09-17T05:32:09.129Z,100.00
2022-09-17T05:34:35.873Z,100.00
2022-09-17T05:37:02.438Z,100.00
2022-09-17T05:39:29.075Z,100.00
2022-09-17T05:41:56.068Z,100.00
2022-09-17T05:44:23.871Z,100.00
2022-09-17T05:46:53.842Z,100.00
2022-09-17T05:49:21.191Z,100.00
2022-09-17T05:51:48.434Z,100.00
2022-09-17T05:54:15.119Z,100.00
2022-09-17T05:56:41.679Z,100.00
2022-09-17T05:59:08.386Z,100.00
2022-09-17T06:01:34.896Z,100.00
2022-09-17T06:04:04.640Z,100.00
2022-09-17T06:06:31.367Z,100.00
2022-09-17T06:09:01.121Z,100.00
2022-09-17T06:11:28.572Z,100.00
2022-09-17T06:13:56.952Z,100.00
2022-09-17T06:16:24.353Z,100.00
2022-09-17T06:18:53.142Z,100.00
2022-09-17T06:21:21.870Z,100.00
2022-09-17T06:23:51.870Z,100.00
2022-09-17T06:26:18.803Z,100.00
2022-09-17T06:28:45.611Z,100.00
2022-09-17T06:31:13.552Z,100.00
2022-09-17T06:33:40.828Z,100.00
2022-09-17T06:36:13.940Z,100.00
2022-09-17T06:38:42.026Z,100.00
2022-09-17T06:41:08.668Z,100.00
2022-09-17T06:43:35.678Z,100.00
2022-09-17T06:46:06.323Z,100.00
2022-09-17T06:48:34.975Z,100.00
2022-09-17T06:51:03.999Z,100.00
2022-09-17T06:53:31.398Z,100.00
2022-09-17T06:56:03.619Z,100.00
2022-09-17T06:58:33.179Z,100.00
2022-09-17T07:01:03.574Z,100.00
2022-09-17T07:03:31.568Z,100.00
2022-09-17T07:05:58.808Z,100.00
2022-09-17T07:08:26.272Z,100.00
2022-09-17T07:10:57.336Z,100.00
2022-09-17T07:13:25.123Z,100.00
2022-09-17T07:15:56.715Z,100.00
2022-09-17T07:18:23.742Z,100.00
2022-09-17T07:20:56.827Z,100.00
2022-09-17T07:23:24.894Z,100.00
2022-09-17T07:25:53.123Z,100.00
2022-09-17T07:28:20.197Z,100.00
2022-09-17T07:30:46.882Z,100.00
2022-09-17T07:33:13.566Z,100.00
2022-09-17T07:35:40.165Z,100.00
2022-09-17T07:38:06.836Z,100.00
2022-09-17T07:40:33.456Z,100.00
2022-09-17T07:43:00.070Z,100.00
2022-09-17T07:45:26.674Z,100.00
2022-09-17T07:47:53.332Z,99.36
2022-09-17T07:50:20.035Z,99.42
2022-09-17T07:52:48.112Z,96.67
2022-09-17T07:55:15.565Z,95.14
2022-09-17T07:57:42.230Z,95.67
2022-09-17T08:00:09.738Z,94.94
2022-09-17T08:02:36.376Z,92.89
2022-09-17T08:05:03.328Z,92.74
2022-09-17T08:07:29.985Z,94.52
2022-09-17T08:09:57.013Z,95.26
2022-09-17T08:12:23.631Z,95.90
2022-09-17T08:14:50.364Z,96.20
2022-09-17T08:17:17.556Z,96.81
2022-09-17T08:19:44.272Z,95.87
2022-09-17T08:22:10.893Z,96.80
2022-09-17T08:24:37.472Z,96.23
2022-09-17T08:27:04.188Z,93.12
2022-09-17T08:29:34.995Z,92.55
2022-09-17T08:32:02.181Z,93.48
2022-09-17T08:34:28.858Z,92.32
2022-09-17T08:36:55.519Z,93.96
2022-09-17T08:39:22.085Z,92.53
2022-09-17T08:41:55.437Z,92.45
2022-09-17T08:44:40.159Z,93.13
2022-09-17T08:47:36.606Z,95.20
2022-09-17T08:50:14.355Z,97.49
2022-09-17T08:53:10.506Z,97.11
2022-09-17T08:55:43.183Z,94.13
2022-09-17T08:58:27.534Z,90.01
2022-09-17T09:01:24.238Z,89.16
2022-09-17T09:04:07.816Z,87.51
2022-09-17T09:06:38.172Z,82.23
2022-09-17T09:09:13.276Z,82.15
2022-09-17T09:11:40.315Z,84.27
2022-09-17T09:14:23.104Z,82.68
2022-09-17T09:16:52.762Z,83.47
2022-09-17T09:19:21.607Z,85.22
2022-09-17T09:21:52.293Z,83.00
2022-09-17T09:24:28.876Z,82.96
2022-09-17T09:27:18.035Z,84.41
2022-09-17T09:29:52.219Z,84.85
2022-09-17T09:32:18.805Z,84.14
2022-09-17T09:34:48.397Z,82.76
2022-09-17T09:37:24.884Z,80.21
2022-09-17T09:39:54.277Z,81.13
2022-09-17T09:42:31.502Z,82.97
2022-09-17T09:45:12.061Z,79.83
2022-09-17T09:47:55.119Z,77.59
2022-09-17T09:50:48.487Z,79.87
2022-09-17T09:53:31.724Z,79.54
2022-09-17T09:56:04.304Z,79.17
2022-09-17T09:58:38.802Z,78.03
2022-09-17T10:01:20.642Z,75.23
2022-09-17T10:03:49.048Z,73.71
2022-09-17T10:06:17.230Z,72.68
2022-09-17T10:08:55.946Z,73.10
2022-09-17T10:11:28.971Z,76.45
2022-09-17T10:14:26.007Z,76.94
2022-09-17T10:17:15.010Z,74.98
2022-09-17T10:19:42.683Z,73.24
2022-09-17T10:22:35.177Z,69.18
2022-09-17T10:25:03.893Z,70.09
2022-09-17T10:27:30.926Z,72.04
2022-09-17T10:30:09.579Z,71.15
2022-09-17T10:32:36.279Z,70.07
2022-09-17T10:35:15.205Z,69.95
2022-09-17T10:37:50.070Z,71.25
2022-09-17T10:40:19.608Z,71.62
2022-09-17T10:42:50.024Z,70.63
2022-09-17T10:45:30.968Z,66.80
2022-09-17T10:47:59.949Z,68.59
2022-09-17T10:50:32.389Z,70.53
2022-09-17T10:53:06.460Z,74.13
2022-09-17T10:55:45.021Z,71.55
2022-09-17T10:58:15.218Z,68.96
2022-09-17T11:01:00.402Z,68.47
2022-09-17T11:04:00.563Z,66.31
2022-09-17T11:07:02.043Z,65.25
2022-09-17T11:09:31.292Z,67.40
2022-09-17T11:12:00.669Z,70.82
2022-09-17T11:14:50.014Z,70.98
2022-09-17T11:17:50.307Z,71.87
2022-09-17T11:20:32.009Z,70.30
2022-09-17T11:23:19.951Z,69.69
2022-09-17T11:26:00.833Z,69.61
2022-09-17T11:28:38.230Z,67.32
2022-09-17T11:31:24.375Z,67.59
2022-09-17T11:34:17.786Z,66.48
2022-09-17T11:37:09.363Z,65.34
2022-09-17T11:39:50.031Z,65.20
2022-09-17T11:42:22.853Z,65.16
2022-09-17T11:44:54.689Z,65.59
2022-09-17T11:47:45.372Z,63.89
2022-09-17T11:50:21.981Z,65.45
2022-09-17T11:53:11.006Z,66.92
2022-09-17T11:55:52.324Z,68.15
2022-09-17T11:58:34.933Z,67.00
2022-09-17T12:01:11.762Z,68.83
2022-09-17T12:03:48.628Z,69.26
2022-09-17T12:06:20.965Z,72.91
2022-09-17T12:09:00.621Z,71.89
2022-09-17T12:12:02.427Z,70.89
2022-09-17T12:14:44.674Z,70.38
2022-09-17T12:17:19.691Z,69.16
2022-09-17T12:20:02.153Z,69.08
2022-09-17T12:22:39.537Z,67.51
2022-09-17T12:25:13.061Z,66.63
2022-09-17T12:27:56.709Z,67.38
2022-09-17T12:30:28.733Z,66.59
2022-09-17T12:33:04.539Z,64.34
2022-09-17T12:36:05.012Z,63.40
2022-09-17T12:38:51.392Z,63.44
2022-09-17T12:41:37.889Z,63.74
2022-09-17T12:44:39.863Z,59.71
2022-09-17T12:47:38.716Z,59.57
2022-09-17T12:50:28.450Z,58.61
2022-09-17T12:53:28.453Z,58.56
2022-09-17T12:56:10.666Z,60.89
2022-09-17T12:59:21.030Z,65.79
2022-09-17T13:01:53.280Z,69.58
2022-09-17T13:04:49.823Z,70.43
2022-09-17T13:07:48.239Z,70.01
2022-09-17T13:10:32.863Z,70.47
2022-09-17T13:13:17.431Z,70.03
2022-09-17T13:16:13.333Z,68.00
2022-09-17T13:19:20.080Z,66.93
2022-09-17T13:21:55.912Z,66.40
2022-09-17T13:24:28.761Z,64.31
2022-09-17T13:26:58.729Z,63.72
2022-09-17T13:29:43.684Z,65.51
2022-09-17T13:32:30.379Z,68.59
2022-09-17T13:34:57.029Z,69.43
2022-09-17T13:37:24.659Z,69.25
2022-09-17T13:39:52.467Z,69.83
2022-09-17T13:42:28.006Z,68.33
2022-09-17T13:45:12.482Z,69.97
2022-09-17T13:47:53.923Z,69.07
2022-09-17T13:50:26.902Z,69.83
2022-09-17T13:52:56.920Z,69.51
2022-09-17T13:55:39.246Z,68.67
2022-09-17T13:58:11.516Z,69.62
2022-09-17T14:00:56.577Z,69.65
2022-09-17T14:03:29.144Z,69.58
2022-09-17T14:05:56.348Z,70.24
2022-09-17T14:08:46.943Z,70.32
2022-09-17T14:11:22.407Z,70.11
2022-09-17T14:13:51.416Z,70.52
2022-09-17T14:16:36.027Z,71.77
2022-09-17T14:19:24.539Z,72.99
2022-09-17T14:22:17.702Z,74.45
2022-09-17T14:24:44.474Z,74.61
2022-09-17T14:27:29.902Z,74.09
2022-09-17T14:30:17.012Z,73.98
2022-09-17T14:33:04.698Z,74.34
2022-09-17T14:35:38.887Z,75.34
2022-09-17T14:38:17.088Z,76.13
2022-09-17T14:40:59.883Z,74.78
2022-09-17T14:43:52.685Z,72.69
2022-09-17T14:46:26.189Z,73.58
2022-09-17T14:48:52.978Z,72.76
2022-09-17T14:51:19.965Z,72.86
2022-09-17T14:54:23.910Z,73.06
2022-09-17T14:57:19.890Z,72.08
2022-09-17T15:00:00.542Z,72.18
2022-09-17T15:02:36.512Z,74.25
2022-09-17T15:05:17.624Z,75.89
2022-09-17T15:07:45.357Z,77.13
2022-09-17T15:10:22.605Z,77.91
2022-09-17T15:12:50.853Z,76.54
2022-09-17T15:15:23.817Z,76.90
2022-09-17T15:17:52.166Z,77.27
2022-09-17T15:20:22.991Z,77.34
2022-09-17T15:22:57.218Z,77.52
2022-09-17T15:25:29.270Z,79.20
2022-09-17T15:27:58.471Z,81.01
2022-09-17T15:30:26.395Z,81.90
2022-09-17T15:33:00.594Z,80.31
2022-09-17T15:35:32.469Z,80.92
2022-09-17T15:38:23.849Z,80.00
2022-09-17T15:40:52.012Z,80.10
2022-09-17T15:43:29.813Z,80.79
2022-09-17T15:45:58.533Z,81.40
2022-09-17T15:48:28.026Z,81.63
2022-09-17T15:50:57.131Z,82.37
2022-09-17T15:53:27.244Z,83.80
2022-09-17T15:56:14.271Z,84.22
2022-09-17T15:58:46.838Z,84.75
2022-09-17T16:01:16.616Z,86.13
2022-09-17T16:03:45.994Z,85.16
2022-09-17T16:06:18.366Z,86.02
2022-09-17T16:08:47.640Z,85.69
2022-09-17T16:11:14.900Z,86.15
2022-09-17T16:13:41.757Z,87.55
2022-09-17T16:16:16.243Z,87.23
2022-09-17T16:18:43.314Z,87.67
2022-09-17T16:21:11.454Z,88.95
2022-09-17T16:23:38.202Z,90.13
2022-09-17T16:26:05.759Z,93.29
2022-09-17T16:28:33.492Z,95.37
2022-09-17T16:31:00.314Z,99.34
2022-09-17T16:33:28.365Z,100.00
2022-09-17T16:35:59.366Z,100.00
2022-09-17T16:38:26.809Z,100.00
2022-09-17T16:40:53.461Z,100.00
2022-09-17T16:43:20.175Z,100.00
2022-09-17T16:46:04.436Z,100.00
2022-09-17T16:48:32.240Z,100.00
2022-09-17T16:50:59.600Z,100.00
2022-09-17T16:53:26.130Z,100.00
2022-09-17T16:55:52.685Z,100.00
2022-09-17T16:58:19.500Z,100.00
2022-09-17T17:00:46.416Z,100.00
2022-09-17T17:03:15.224Z,100.00
2022-09-17T17:05:41.946Z,100.00
2022-09-17T17:08:09.303Z,100.00
2022-09-17T17:10:38.496Z,100.00
2022-09-17T17:13:05.771Z,100.00
2022-09-17T17:15:32.472Z,100.00
2022-09-17T17:17:59.369Z,100.00
2022-09-17T17:20:26.134Z,100.00
2022-09-17T17:22:53.018Z,100.00
2022-09-17T17:25:19.882Z,100.00
2022-09-17T17:27:46.379Z,100.00
2022-09-17T17:30:17.679Z,100.00
2022-09-17T17:32:49.166Z,100.00
2022-09-17T17:35:15.972Z,100.00
2022-09-17T17:37:42.901Z,100.00
2022-09-17T17:40:10.418Z,100.00
2022-09-17T17:42:44.041Z,100.00
2022-09-17T17:45:11.068Z,100.00
2022-09-17T17:47:37.610Z,100.00
2022-09-17T17:50:04.586Z,100.00
2022-09-17T17:52:32.066Z,100.00
2022-09-17T17:54:58.763Z,100.00
2022-09-17T17:57:25.416Z,100.00
2022-09-17T17:59:51.961Z,100.00
2022-09-17T18:02:18.537Z,100.00
2022-09-17T18:04:45.405Z,100.00
2022-09-17T18:07:12.047Z,100.00
2022-09-17T18:09:38.610Z,100.00
2022-09-17T18:12:05.521Z,100.00
2022-09-17T18:14:32.083Z,100.00
2022-09-17T18:16:58.733Z,100.00
2022-09-17T18:19:25.412Z,100.00
2022-09-17T18:21:54.624Z,100.00
2022-09-17T18:24:21.357Z,100.00
2022-09-17T18:26:48.050Z,100.00
2022-09-17T18:29:14.582Z,100.00
2022-09-17T18:31:41.392Z,100.00
2022-09-17T18:34:13.527Z,100.00
2022-09-17T18:36:41.295Z,100.00
2022-09-17T18:39:44.923Z,100.00
2022-09-17T18:41:58.061Z,100.00
2022-09-17T18:44:25.244Z,100.00
2022-09-17T18:46:51.896Z,100.00
2022-09-17T18:49:18.673Z,100.00
2022-09-17T18:51:45.367Z,100.00
2022-09-17T18:54:12.959Z,100.00
2022-09-17T18:56:41.787Z,100.00
2022-09-17T18:59:09.668Z,100.00
2022-09-17T19:01:36.491Z,100.00
2022-09-17T19:04:03.978Z,100.00
2022-09-17T19:06:32.413Z,100.00
2022-09-17T19:09:03.393Z,100.00
2022-09-17T19:11:30.416Z,100.00
2022-09-17T19:13:57.050Z,100.00
2022-09-17T19:16:23.717Z,100.00
2022-09-17T19:18:50.458Z,100.00
2022-09-17T19:21:19.100Z,100.00
2022-09-17T19:23:48.033Z,100.00
2022-09-17T19:26:19.913Z,100.00
2022-09-17T19:28:46.946Z,100.00
2022-09-17T19:31:17.188Z,100.00
2022-09-17T19:33:44.899Z,100.00
2022-09-17T19:36:16.237Z,100.00
2022-09-17T19:38:44.773Z,100.00
2022-09-17T19:41:13.327Z,100.00
2022-09-17T19:43:40.565Z,100.00
2022-09-17T19:46:18.528Z,100.00
2022-09-17T19:48:49.816Z,100.00
2022-09-17T19:51:17.828Z,100.00
2022-09-17T19:53:45.786Z,100.00
2022-09-17T19:56:20.650Z,100.00
2022-09-17T19:58:47.476Z,100.00
2022-09-17T20:01:15.204Z,100.00
2022-09-17T20:03:44.091Z,100.00
2022-09-17T20:06:13.718Z,100.00
2022-09-17T20:08:47.353Z,100.00
2022-09-17T20:11:15.816Z,99.82
2022-09-17T20:13:42.516Z,100.00
2022-09-17T20:16:17.969Z,99.59
2022-09-17T20:18:45.033Z,99.38
2022-09-17T20:21:24.235Z,99.78
2022-09-17T20:23:51.325Z,100.00
2022-09-17T20:26:18.581Z,100.00
2022-09-17T20:28:46.053Z,100.00
2022-09-17T20:31:18.982Z,100.00
2022-09-17T20:33:46.881Z,100.00
2022-09-17T20:36:19.967Z,100.00
2022-09-17T20:41:34.610Z,100.00
2022-09-17T20:44:01.257Z,100.00
2022-09-17T20:46:29.493Z,100.00
2022-09-17T20:48:57.880Z,100.00
2022-09-17T20:51:27.214Z,100.00
2022-09-17T20:53:54.315Z,100.00
2022-09-17T20:56:23.580Z,100.00
2022-09-17T20:59:04.048Z,100.00
2022-09-17T21:01:32.980Z,100.00
2022-09-17T21:04:01.170Z,100.00
2022-09-17T21:06:35.814Z,100.00
2022-09-17T21:09:02.877Z,100.00
2022-09-17T21:11:31.398Z,100.00
2022-09-17T21:13:59.953Z,100.00
2022-09-17T21:16:26.833Z,100.00
2022-09-17T21:19:01.708Z,100.00
2022-09-17T21:21:28.753Z,100.00
2022-09-17T21:24:00.356Z,100.00
2022-09-17T21:26:27.680Z,100.00
2022-09-17T21:28:56.097Z,100.00
2022-09-17T21:31:34.068Z,100.00
2022-09-17T21:34:02.867Z,100.00
2022-09-17T21:36:31.870Z,100.00
2022-09-17T21:39:01.777Z,100.00
2022-09-17T21:41:29.217Z,100.00
2022-09-17T21:43:56.271Z,100.00
2022-09-17T21:46:25.841Z,100.00
2022-09-17T21:48:54.596Z,100.00
2022-09-17T21:51:24.675Z,100.00
2022-09-17T21:53:52.758Z,100.00
2022-09-17T21:56:20.457Z,100.00
2022-09-17T21:58:51.535Z,100.00
2022-09-17T22:01:20.732Z,100.00
2022-09-17T22:03:47.617Z,100.00
2022-09-17T22:06:18.566Z,100.00
2022-09-17T22:08:46.425Z,100.00
2022-09-17T22:11:19.665Z,100.00
2022-09-17T22:13:57.583Z,100.00
2022-09-17T22:16:27.376Z,100.00
2022-09-17T22:18:54.060Z,100.00
2022-09-17T22:21:23.318Z,100.00
2022-09-17T22:23:52.196Z,100.00
2022-09-17T22:26:21.380Z,100.00
2022-09-17T22:28:49.381Z,100.00
2022-09-17T22:31:16.801Z,100.00
2022-09-17T22:33:46.264Z,100.00
2022-09-17T22:36:17.053Z,100.00
2022-09-17T22:38:52.431Z,100.00
2022-09-17T22:41:22.087Z,100.00
2022-09-17T22:43:52.249Z,100.00
2022-09-17T22:46:24.750Z,100.00
2022-09-17T22:48:52.087Z,100.00
2022-09-17T22:51:19.452Z,100.00
2022-09-17T22:53:46.071Z,100.00
2022-09-17T22:56:18.684Z,100.00
2022-09-17T22:58:46.315Z,100.00
2022-09-17T23:01:21.194Z,100.00
2022-09-17T23:03:49.109Z,100.00
2022-09-17T23:06:21.878Z,100.00
2022-09-17T23:08:48.696Z,100.00
2022-09-17T23:11:20.997Z,100.00
2022-09-17T23:13:48.882Z,100.00
2022-09-17T23:16:16.108Z,100.00
2022-09-17T23:18:43.015Z,100.00
2022-09-17T23:21:18.097Z,100.00
2022-09-17T23:23:47.571Z,100.00
2022-09-17T23:26:20.055Z,100.00
2022-09-17T23:28:47.534Z,100.00
2022-09-17T23:31:20.175Z,100.00
2022-09-17T23:33:48.100Z,100.00
2022-09-17T23:36:20.607Z,100.00
2022-09-17T23:38:48.446Z,100.00
2022-09-17T23:41:17.109Z,100.00
2022-09-17T23:43:45.990Z,100.00
2022-09-17T23:46:12.869Z,100.00
2022-09-17T23:48:39.700Z,100.00
2022-09-17T23:51:06.987Z,100.00
2022-09-17T23:53:35.503Z,100.00
2022-09-17T23:56:03.032Z,100.00
2022-09-17T23:58:30.833Z,100.00
